createdAt,value
2022-12-19T00:01:35.712Z,2.08
2022-12-19T00:04:08.807Z,2.21
2022-12-19T00:06:37.001Z,2.26
2022-12-19T00:09:03.643Z,2.36
2022-12-19T00:11:30.427Z,2.40
2022-12-19T00:13:57.217Z,2.41
2022-12-19T00:16:26.160Z,2.47
2022-12-19T00:18:55.402Z,2.44
2022-12-19T00:21:25.653Z,2.48
2022-12-19T00:23:52.553Z,2.53
2022-12-19T00:26:23.994Z,2.51
2022-12-19T00:28:53.020Z,2.52
2022-12-19T00:31:20.892Z,2.49
2022-12-19T00:33:47.873Z,2.45
2022-12-19T00:36:18.105Z,2.47
2022-12-19T00:38:51.036Z,2.63
2022-12-19T00:41:25.735Z,2.47
2022-12-19T00:43:56.678Z,2.60
2022-12-19T00:46:23.216Z,2.63
2022-12-19T00:48:49.760Z,2.67
2022-12-19T00:51:18.295Z,2.73
2022-12-19T00:53:45.897Z,2.81
2022-12-19T00:56:17.411Z,2.87
2022-12-19T00:58:47.180Z,2.93
2022-12-19T01:01:20.053Z,3.01
2022-12-19T01:04:18.613Z,3.04
2022-12-19T01:06:33.553Z,3.11
2022-12-19T01:09:00.960Z,3.09
2022-12-19T01:11:46.296Z,3.10
2022-12-19T01:14:17.593Z,3.02
2022-12-19T01:16:47.598Z,3.04
2022-12-19T01:19:14.035Z,3.22
2022-12-19T01:21:40.494Z,3.33
2022-12-19T01:24:07.038Z,3.32
2022-12-19T01:26:33.523Z,3.26
2022-12-19T01:28:59.969Z,3.39
2022-12-19T01:31:26.486Z,3.29
2022-12-19T01:33:52.916Z,3.22
2022-12-19T01:36:21.021Z,3.32
2022-12-19T01:38:47.440Z,3.33
2022-12-19T01:41:13.848Z,3.34
2022-12-19T01:44:00.098Z,3.41
2022-12-19T01:46:42.200Z,3.35
2022-12-19T01:49:17.619Z,3.32
2022-12-19T01:51:48.525Z,3.18
2022-12-19T01:54:18.636Z,3.08
2022-12-19T01:56:52.008Z,3.27
2022-12-19T01:59:45.613Z,3.38
2022-12-19T02:02:37.416Z,3.32
2022-12-19T02:05:05.199Z,3.39
2022-12-19T02:07:32.500Z,3.37
2022-12-19T02:09:59.042Z,3.46
2022-12-19T02:12:26.284Z,3.52
2022-12-19T02:14:53.309Z,3.45
2022-12-19T02:17:34.615Z,3.37
2022-12-19T02:20:25.289Z,3.37
2022-12-19T02:23:25.897Z,3.38
2022-12-19T02:26:10.907Z,3.45
2022-12-19T02:29:09.600Z,3.38
2022-12-19T02:31:40.704Z,3.43
2022-12-19T02:34:24.112Z,3.42
2022-12-19T02:36:59.280Z,3.44
2022-12-19T02:39:52.544Z,3.39
2022-12-19T02:42:28.798Z,3.40
2022-12-19T02:44:59.226Z,3.36
2022-12-19T02:47:25.629Z,3.45
2022-12-19T02:49:52.006Z,3.37
2022-12-19T02:52:21.343Z,3.43
2022-12-19T02:54:49.559Z,3.52
2022-12-19T02:57:18.917Z,3.56
2022-12-19T02:59:52.416Z,3.53
2022-12-19T03:03:00.771Z,3.61
2022-12-19T03:05:52.325Z,3.71
2022-12-19T03:08:45.069Z,3.70
2022-12-19T03:11:15.824Z,3.64
2022-12-19T03:13:46.499Z,3.61
2022-12-19T03:16:13.531Z,3.71
2022-12-19T03:18:40.361Z,3.83
2022-12-19T03:21:12.888Z,3.95
2022-12-19T03:23:40.385Z,3.88
2022-12-19T03:26:13.090Z,3.88
2022-12-19T03:28:44.369Z,3.84
2022-12-19T03:31:12.911Z,3.80
2022-12-19T03:33:41.250Z,3.78
2022-12-19T03:36:14.155Z,3.75
2022-12-19T03:38:40.964Z,3.61
2022-12-19T03:41:08.993Z,3.72
2022-12-19T03:43:36.348Z,3.79
2022-12-19T03:46:11.449Z,3.83
2022-12-19T03:48:50.881Z,3.78
2022-12-19T03:51:45.136Z,3.80
2022-12-19T03:54:24.494Z,3.91
2022-12-19T03:56:59.375Z,4.09
2022-12-19T03:59:45.344Z,4.16
2022-12-19T04:02:13.706Z,4.10
2022-12-19T04:04:42.744Z,3.87
2022-12-19T04:07:09.717Z,3.80
2022-12-19T04:09:37.940Z,3.72
2022-12-19T04:12:07.131Z,3.79
2022-12-19T04:14:35.219Z,3.92
2022-12-19T04:17:11.269Z,3.91
2022-12-19T04:19:45.186Z,3.97
2022-12-19T04:22:23.791Z,4.12
2022-12-19T04:24:51.244Z,4.10
2022-12-19T04:27:19.173Z,4.08
2022-12-19T04:29:46.021Z,4.09
2022-12-19T04:32:13.163Z,4.11
2022-12-19T04:34:43.002Z,4.14
2022-12-19T04:37:10.190Z,4.14
2022-12-19T04:39:36.687Z,4.08
2022-12-19T04:42:03.090Z,4.02
2022-12-19T04:44:29.653Z,4.17
2022-12-19T04:46:56.092Z,4.02
2022-12-19T04:49:22.569Z,4.19
2022-12-19T04:51:49.464Z,4.21
2022-12-19T04:54:15.920Z,4.19
2022-12-19T04:56:42.326Z,4.21
2022-12-19T04:59:08.768Z,4.27
2022-12-19T05:01:35.356Z,4.21
2022-12-19T05:04:04.630Z,4.22
2022-12-19T05:06:31.422Z,4.36
2022-12-19T05:08:57.908Z,4.36
2022-12-19T05:11:24.326Z,4.23
2022-12-19T05:13:50.833Z,4.31
2022-12-19T05:16:17.459Z,4.22
2022-12-19T05:18:44.037Z,4.32
2022-12-19T05:21:11.007Z,4.24
2022-12-19T05:23:37.506Z,4.24
2022-12-19T05:26:05.869Z,4.29
2022-12-19T05:28:33.288Z,4.34
2022-12-19T05:31:05.254Z,4.29
2022-12-19T05:33:31.689Z,4.31
2022-12-19T05:35:58.074Z,4.40
2022-12-19T05:38:24.911Z,4.44
2022-12-19T05:40:51.310Z,4.44
2022-12-19T05:43:17.743Z,4.41
2022-12-19T05:45:44.202Z,4.45
2022-12-19T05:48:10.628Z,4.43
2022-12-19T05:50:37.135Z,4.43
2022-12-19T05:53:03.850Z,4.45
2022-12-19T05:55:30.274Z,4.45
2022-12-19T05:57:56.710Z,4.53
2022-12-19T06:00:23.275Z,4.52
2022-12-19T06:02:49.803Z,4.62
2022-12-19T06:05:17.068Z,4.49
2022-12-19T06:07:43.494Z,4.43
2022-12-19T06:10:09.983Z,4.46
2022-12-19T06:12:36.375Z,4.47
2022-12-19T06:15:02.944Z,4.54
2022-12-19T06:17:29.340Z,4.53
2022-12-19T06:19:55.783Z,4.42
2022-12-19T06:22:22.233Z,4.70
2022-12-19T06:24:48.863Z,4.82
2022-12-19T06:27:15.308Z,4.74
2022-12-19T06:29:41.721Z,4.84
2022-12-19T06:32:08.792Z,4.53
2022-12-19T06:35:03.736Z,4.41
2022-12-19T06:37:21.779Z,4.47
2022-12-19T06:39:50.464Z,4.46
2022-12-19T06:42:22.855Z,4.57
2022-12-19T06:44:50.918Z,4.52
2022-12-19T06:47:17.403Z,4.56
2022-12-19T06:49:43.917Z,4.54
2022-12-19T06:52:10.316Z,4.57
2022-12-19T06:54:36.727Z,4.55
2022-12-19T06:57:03.160Z,4.68
2022-12-19T06:59:29.793Z,4.64
2022-12-19T07:02:06.448Z,4.60
2022-12-19T07:04:38.951Z,4.77
2022-12-19T07:07:05.342Z,4.81
2022-12-19T07:09:33.673Z,4.80
2022-12-19T07:12:00.954Z,5.09
2022-12-19T07:14:27.403Z,5.18
2022-12-19T07:16:55.252Z,5.11
2022-12-19T07:19:22.416Z,5.15
2022-12-19T07:21:48.976Z,5.11
2022-12-19T07:24:15.433Z,5.20
2022-12-19T07:26:42.662Z,5.12
2022-12-19T07:29:10.679Z,5.19
2022-12-19T07:31:38.448Z,5.15
2022-12-19T07:34:04.915Z,5.25
2022-12-19T07:36:31.377Z,5.24
2022-12-19T07:38:58.000Z,5.18
2022-12-19T07:41:24.551Z,5.23
2022-12-19T07:43:51.018Z,5.28
2022-12-19T07:46:17.452Z,5.28
2022-12-19T07:48:43.941Z,5.29
2022-12-19T07:51:10.360Z,5.34
2022-12-19T07:53:36.892Z,5.36
2022-12-19T07:56:03.331Z,5.39
2022-12-19T07:58:30.524Z,5.30
2022-12-19T08:00:58.173Z,5.16
2022-12-19T08:03:25.361Z,5.30
2022-12-19T08:05:51.977Z,5.25
2022-12-19T08:08:18.587Z,5.23
2022-12-19T08:10:45.433Z,5.11
2022-12-19T08:13:11.901Z,5.14
2022-12-19T08:15:38.304Z,5.31
2022-12-19T08:18:04.687Z,5.34
2022-12-19T08:20:31.219Z,5.29
2022-12-19T08:22:57.635Z,5.38
2022-12-19T08:25:24.036Z,5.38
2022-12-19T08:27:50.470Z,5.34
2022-12-19T08:30:16.996Z,5.47
2022-12-19T08:32:45.004Z,5.44
2022-12-19T08:35:11.670Z,5.43
2022-12-19T08:37:38.697Z,5.52
2022-12-19T08:40:05.758Z,5.51
2022-12-19T08:42:33.521Z,5.52
2022-12-19T08:45:00.029Z,5.56
2022-12-19T08:47:26.710Z,5.52
2022-12-19T08:49:53.151Z,5.57
2022-12-19T08:52:19.609Z,5.66
2022-12-19T08:54:46.064Z,5.66
2022-12-19T08:57:12.787Z,5.66
2022-12-19T08:59:39.225Z,5.71
2022-12-19T09:02:06.918Z,5.66
2022-12-19T09:06:00.497Z,5.74
2022-12-19T09:07:19.953Z,5.64
2022-12-19T09:09:46.432Z,5.82
2022-12-19T09:12:14.296Z,5.68
2022-12-19T09:14:40.934Z,5.83
2022-12-19T09:17:07.466Z,5.87
2022-12-19T09:19:34.101Z,5.87
2022-12-19T09:22:00.572Z,5.90
2022-12-19T09:24:27.318Z,5.97
2022-12-19T09:26:53.852Z,6.04
2022-12-19T09:29:21.818Z,6.00
2022-12-19T09:31:56.321Z,6.11
2022-12-19T09:34:38.033Z,6.03
2022-12-19T09:37:16.882Z,5.99
2022-12-19T09:39:45.591Z,6.11
2022-12-19T09:42:40.570Z,6.12
2022-12-19T09:45:32.204Z,6.26
2022-12-19T09:48:00.267Z,6.22
2022-12-19T09:50:54.669Z,6.24
2022-12-19T09:53:29.235Z,6.20
2022-12-19T09:55:58.296Z,6.23
2022-12-19T09:58:31.132Z,6.22
2022-12-19T10:01:00.225Z,6.26
2022-12-19T10:03:40.924Z,6.38
2022-12-19T10:07:18.303Z,6.46
2022-12-19T10:10:21.726Z,6.34
2022-12-19T10:12:47.126Z,6.38
2022-12-19T10:15:20.289Z,6.51
2022-12-19T10:17:58.794Z,6.40
2022-12-19T10:20:36.006Z,6.48
2022-12-19T10:23:31.979Z,6.59
2022-12-19T10:26:21.217Z,6.77
2022-12-19T10:29:07.544Z,6.72
2022-12-19T10:31:53.764Z,6.74
2022-12-19T10:34:44.545Z,6.70
2022-12-19T10:37:26.588Z,6.73
2022-12-19T10:40:31.151Z,6.72
2022-12-19T10:43:30.649Z,6.74
2022-12-19T10:46:06.299Z,6.77
2022-12-19T10:48:32.749Z,6.80
2022-12-19T10:51:05.197Z,6.89
2022-12-19T10:53:33.281Z,6.93
2022-12-19T10:56:02.131Z,6.92
2022-12-19T10:58:36.823Z,7.02
2022-12-19T11:01:22.028Z,7.03
2022-12-19T11:03:52.623Z,7.16
2022-12-19T11:06:34.912Z,7.26
2022-12-19T11:09:21.010Z,7.25
2022-12-19T11:13:32.224Z,7.30
2022-12-19T11:19:04.677Z,7.43
2022-12-19T11:23:45.327Z,7.45
2022-12-19T11:29:18.198Z,7.46
2022-12-19T11:29:54.946Z,7.60
2022-12-19T11:30:37.767Z,7.65
2022-12-19T11:30:47.107Z,7.69
2022-12-19T11:34:27.562Z,7.77
2022-12-19T11:37:01.636Z,7.86
2022-12-19T11:39:34.108Z,7.98
2022-12-19T11:42:08.423Z,8.01
2022-12-19T11:44:40.302Z,8.06
2022-12-19T11:47:21.202Z,8.09
2022-12-19T11:49:52.235Z,8.10
2022-12-19T11:53:02.400Z,8.22
2022-12-19T11:55:37.584Z,8.23
2022-12-19T11:58:05.105Z,8.31
2022-12-19T12:00:32.847Z,8.26
2022-12-19T12:03:14.571Z,8.19
2022-12-19T12:05:51.976Z,8.29
2022-12-19T12:10:35.937Z,8.46
2022-12-19T12:19:53.839Z,8.63
2022-12-19T12:24:17.668Z,8.69
2022-12-19T12:28:57.218Z,8.72
2022-12-19T12:31:23.833Z,8.70
2022-12-19T12:31:27.247Z,8.66
2022-12-19T12:31:47.315Z,8.68
2022-12-19T12:31:48.868Z,8.57
2022-12-19T12:35:11.082Z,8.80
2022-12-19T12:38:48.011Z,8.81
2022-12-19T12:41:47.511Z,8.91
2022-12-19T12:44:15.075Z,9.19
2022-12-19T12:46:48.356Z,9.16
2022-12-19T12:49:35.262Z,9.05
2022-12-19T12:52:03.415Z,8.92
2022-12-19T12:54:34.551Z,8.89
2022-12-19T12:57:02.444Z,8.97
2022-12-19T12:59:30.069Z,8.97
2022-12-19T13:02:01.908Z,9.36
2022-12-19T13:04:34.554Z,9.59
2022-12-19T13:07:14.915Z,9.59
2022-12-19T13:09:41.581Z,9.34
2022-12-19T13:12:46.397Z,9.21
2022-12-19T13:15:22.073Z,9.20
2022-12-19T13:17:48.917Z,9.09
2022-12-19T13:20:18.919Z,9.10
2022-12-19T13:23:02.689Z,9.15
2022-12-19T13:25:36.367Z,9.32
2022-12-19T13:28:03.007Z,9.27
2022-12-19T13:30:31.056Z,9.23
2022-12-19T13:33:00.606Z,9.18
2022-12-19T13:38:24.391Z,9.17
2022-12-19T13:39:55.641Z,9.25
2022-12-19T13:41:48.726Z,9.38
2022-12-19T13:44:20.105Z,9.36
2022-12-19T13:46:46.766Z,9.38
2022-12-19T13:49:30.474Z,9.38
2022-12-19T13:52:00.246Z,9.45
2022-12-19T13:54:36.009Z,9.42
2022-12-19T13:57:09.041Z,9.50
2022-12-19T13:59:38.306Z,9.57
2022-12-19T14:02:16.803Z,9.61
2022-12-19T14:04:44.547Z,9.61
2022-12-19T14:07:37.119Z,9.74
2022-12-19T14:11:38.869Z,9.92
2022-12-19T14:14:00.799Z,9.93
2022-12-19T14:16:43.302Z,9.84
2022-12-19T14:19:24.905Z,9.88
2022-12-19T14:22:04.100Z,9.80
2022-12-19T14:24:35.327Z,9.70
2022-12-19T14:28:22.351Z,9.72
2022-12-19T14:30:27.815Z,9.71
2022-12-19T14:33:40.144Z,9.67
2022-12-19T14:36:09.090Z,9.76
2022-12-19T14:39:22.085Z,9.94
2022-12-19T14:41:48.198Z,9.88
2022-12-19T14:54:06.784Z,9.77
2022-12-19T14:54:06.892Z,9.81
2022-12-19T14:54:15.866Z,9.88
2022-12-19T14:54:44.282Z,9.78
2022-12-19T14:59:31.554Z,9.86
2022-12-19T15:02:07.366Z,9.95
2022-12-19T15:04:52.361Z,9.64
2022-12-19T15:07:23.836Z,9.88
2022-12-19T15:11:09.294Z,9.92
2022-12-19T15:14:53.595Z,9.91
2022-12-19T15:16:02.196Z,9.94
2022-12-19T15:18:40.377Z,9.75
2022-12-19T15:21:12.630Z,9.83
2022-12-19T15:23:39.080Z,9.98
2022-12-19T15:26:13.053Z,9.99
2022-12-19T15:28:50.655Z,9.91
2022-12-19T15:31:38.368Z,9.96
2022-12-19T15:34:35.481Z,9.98
2022-12-19T15:37:02.815Z,10.00
2022-12-19T15:39:32.417Z,9.94
2022-12-19T15:41:59.726Z,9.86
2022-12-19T15:44:41.416Z,9.81
2022-12-19T15:47:33.303Z,9.98
2022-12-19T15:50:02.665Z,9.94
2022-12-19T15:52:29.658Z,9.93
2022-12-19T15:54:57.430Z,10.00
2022-12-19T15:57:36.233Z,10.03
2022-12-19T16:00:08.452Z,10.43
2022-12-19T16:03:13.383Z,10.40
2022-12-19T16:05:27.902Z,10.31
2022-12-19T16:07:54.877Z,10.11
2022-12-19T16:10:21.934Z,9.97
2022-12-19T16:12:51.092Z,10.13
2022-12-19T16:15:27.653Z,10.15
2022-12-19T16:17:55.006Z,10.38
2022-12-19T16:20:26.946Z,10.46
2022-12-19T16:22:54.900Z,10.40
2022-12-19T16:25:22.197Z,10.42
2022-12-19T16:27:55.708Z,10.32
2022-12-19T16:30:28.782Z,10.27
2022-12-19T16:32:55.468Z,10.08
2022-12-19T16:35:54.570Z,9.91
2022-12-19T16:38:10.761Z,10.03
2022-12-19T16:40:37.217Z,9.97
2022-12-19T16:43:06.408Z,9.90
2022-12-19T16:45:34.033Z,9.87
2022-12-19T16:48:00.567Z,9.92
2022-12-19T16:50:30.085Z,9.97
2022-12-19T16:52:57.421Z,9.82
2022-12-19T16:55:25.127Z,9.84
2022-12-19T16:57:53.683Z,9.79
2022-12-19T17:00:21.407Z,9.75
2022-12-19T17:02:57.213Z,9.85
2022-12-19T17:05:32.059Z,10.05
2022-12-19T17:07:59.476Z,10.03
2022-12-19T17:10:29.829Z,10.12
2022-12-19T17:12:57.024Z,10.03
2022-12-19T17:15:28.067Z,10.09
2022-12-19T17:17:57.812Z,9.98
2022-12-19T17:20:27.064Z,9.85
2022-12-19T17:22:53.535Z,9.90
2022-12-19T17:25:24.443Z,10.00
2022-12-19T17:27:51.740Z,9.91
2022-12-19T17:30:18.794Z,9.92
2022-12-19T17:32:47.690Z,9.81
2022-12-19T17:35:25.720Z,9.89
2022-12-19T17:37:56.371Z,9.79
2022-12-19T17:40:26.009Z,9.92
2022-12-19T17:42:52.903Z,9.93
2022-12-19T17:45:19.479Z,9.87
2022-12-19T17:47:46.278Z,9.86
2022-12-19T17:50:20.339Z,9.81
2022-12-19T17:52:46.730Z,9.85
2022-12-19T17:55:18.437Z,9.73
2022-12-19T17:57:44.873Z,9.71
2022-12-19T18:00:12.035Z,9.61
2022-12-19T18:02:38.660Z,9.80
2022-12-19T18:05:05.553Z,9.79
2022-12-19T18:07:32.017Z,9.81
2022-12-19T18:09:58.558Z,9.68
2022-12-19T18:12:25.000Z,9.73
2022-12-19T18:14:51.843Z,9.76
2022-12-19T18:17:25.646Z,9.88
2022-12-19T18:19:52.599Z,9.93
2022-12-19T18:22:19.001Z,9.94
2022-12-19T18:24:45.415Z,9.92
2022-12-19T18:27:11.876Z,9.89
2022-12-19T18:29:38.529Z,9.87
2022-12-19T18:32:05.127Z,9.71
2022-12-19T18:34:32.126Z,9.71
2022-12-19T18:36:58.611Z,9.69
2022-12-19T18:39:27.666Z,9.49
2022-12-19T18:41:54.451Z,9.68
2022-12-19T18:44:22.961Z,9.61
2022-12-19T18:46:50.529Z,9.73
2022-12-19T18:49:17.199Z,9.65
2022-12-19T18:51:44.926Z,9.56
2022-12-19T18:54:15.633Z,9.53
2022-12-19T18:56:42.135Z,9.53
2022-12-19T18:59:09.077Z,9.61
2022-12-19T19:01:40.043Z,9.69
2022-12-19T19:04:07.166Z,9.69
2022-12-19T19:06:37.917Z,9.70
2022-12-19T19:09:10.940Z,9.80
2022-12-19T19:11:37.335Z,9.73
2022-12-19T19:14:03.722Z,9.73
2022-12-19T19:16:30.691Z,9.66
2022-12-19T19:18:57.465Z,9.53
2022-12-19T19:21:27.360Z,9.47
2022-12-19T19:24:07.472Z,9.26
2022-12-19T19:26:34.087Z,9.15
2022-12-19T19:29:00.561Z,9.02
2022-12-19T19:31:28.242Z,9.00
2022-12-19T19:33:59.184Z,8.92
2022-12-19T19:36:28.366Z,8.83
2022-12-19T19:38:55.948Z,8.86
2022-12-19T19:41:24.224Z,8.87
2022-12-19T19:43:50.627Z,8.95
2022-12-19T19:46:19.182Z,9.03
2022-12-19T19:48:45.682Z,9.07
2022-12-19T19:51:15.530Z,9.17
2022-12-19T19:53:42.159Z,9.17
2022-12-19T19:56:08.609Z,9.20
2022-12-19T19:58:35.100Z,9.14
2022-12-19T20:01:10.239Z,9.19
2022-12-19T20:03:37.381Z,9.29
2022-12-19T20:06:03.999Z,9.31
2022-12-19T20:08:38.645Z,9.33
2022-12-19T20:11:06.359Z,9.25
2022-12-19T20:13:33.349Z,9.40
2022-12-19T20:16:08.433Z,9.31
2022-12-19T20:18:36.038Z,9.40
2022-12-19T20:21:04.576Z,9.33
2022-12-19T20:23:32.997Z,9.33
2022-12-19T20:26:03.457Z,9.33
2022-12-19T20:28:30.326Z,9.23
2022-12-19T20:30:57.266Z,9.19
2022-12-19T20:33:23.719Z,9.05
2022-12-19T20:35:50.652Z,9.03
2022-12-19T20:38:17.138Z,8.98
2022-12-19T20:40:45.413Z,8.99
2022-12-19T20:43:11.858Z,8.88
2022-12-19T20:45:38.447Z,8.90
2022-12-19T20:48:05.088Z,8.87
2022-12-19T20:50:31.514Z,8.78
2022-12-19T20:52:58.096Z,8.75
2022-12-19T20:55:24.618Z,8.73
2022-12-19T20:57:51.074Z,8.78
2022-12-19T21:00:18.082Z,8.75
2022-12-19T21:03:25.924Z,8.86
2022-12-19T21:05:31.083Z,8.74
2022-12-19T21:07:57.633Z,8.79
2022-12-19T21:10:24.293Z,8.81
2022-12-19T21:12:50.796Z,8.82
2022-12-19T21:15:17.813Z,8.87
2022-12-19T21:17:44.328Z,8.90
2022-12-19T21:20:11.328Z,9.01
2022-12-19T21:22:37.784Z,9.08
2022-12-19T21:25:05.182Z,9.09
2022-12-19T21:27:31.625Z,9.21
2022-12-19T21:29:58.202Z,9.22
2022-12-19T21:32:24.745Z,9.30
2022-12-19T21:34:53.564Z,9.30
2022-12-19T21:37:20.083Z,9.31
2022-12-19T21:39:46.499Z,9.28
2022-12-19T21:42:12.921Z,9.36
2022-12-19T21:44:39.428Z,9.28
2022-12-19T21:47:06.055Z,9.14
2022-12-19T21:49:32.584Z,9.15
2022-12-19T21:51:58.978Z,9.08
2022-12-19T21:54:25.666Z,9.02
2022-12-19T21:56:52.161Z,8.94
2022-12-19T21:59:18.743Z,8.79
2022-12-19T22:01:45.736Z,8.70
2022-12-19T22:04:14.860Z,8.58
2022-12-19T22:06:41.585Z,8.52
2022-12-19T22:09:10.596Z,8.52
2022-12-19T22:11:37.124Z,8.54
2022-12-19T22:14:04.978Z,8.46
2022-12-19T22:16:31.732Z,8.45
2022-12-19T22:18:59.052Z,8.42
2022-12-19T22:21:26.069Z,8.45
2022-12-19T22:23:52.638Z,8.52
2022-12-19T22:26:21.698Z,8.58
2022-12-19T22:28:50.179Z,8.59
2022-12-19T22:31:17.846Z,8.64
2022-12-19T22:33:44.655Z,8.61
2022-12-19T22:36:15.232Z,8.58
2022-12-19T22:38:43.544Z,8.57
2022-12-19T22:41:10.054Z,8.52
2022-12-19T22:43:37.418Z,8.53
2022-12-19T22:46:17.373Z,8.49
2022-12-19T22:48:45.356Z,8.52
2022-12-19T22:51:12.305Z,8.57
2022-12-19T22:53:39.596Z,8.68
2022-12-19T22:56:10.283Z,8.83
2022-12-19T22:58:37.749Z,8.80
2022-12-19T23:01:20.500Z,8.91
2022-12-19T23:03:48.686Z,8.91
2022-12-19T23:06:16.459Z,8.93
2022-12-19T23:08:43.629Z,8.95
2022-12-19T23:11:12.100Z,9.10
2022-12-19T23:13:39.917Z,9.15
2022-12-19T23:16:06.528Z,9.20
2022-12-19T23:18:33.101Z,9.22
2022-12-19T23:21:19.817Z,9.20
2022-12-19T23:23:48.211Z,9.26
2022-12-19T23:26:18.224Z,9.23
2022-12-19T23:28:50.304Z,9.20
2022-12-19T23:31:16.752Z,9.10
2022-12-19T23:33:43.433Z,9.11
2022-12-19T23:36:10.798Z,9.16
2022-12-19T23:38:37.226Z,9.17
2022-12-19T23:41:07.326Z,9.16
2022-12-19T23:43:34.988Z,9.00
2022-12-19T23:46:10.634Z,9.01
2022-12-19T23:48:37.170Z,8.96
2022-12-19T23:51:06.545Z,8.98
2022-12-19T23:53:34.177Z,9.08
2022-12-19T23:56:03.360Z,9.06
2022-12-19T23:58:29.984Z,9.09
